Time;durP1;ratioP1;P1;durP2;ratioP2;P2;SDS_P1;SDS_P2;PMS_P1;PMS_P2;Temp;Humidity;BMP_temperature;BMP_pressure;BME280_temperature;BME280_humidity;BME280_pressure;Samples;Min_cycle;Max_cycle;Signal;HPM_P1;HPM_P2
2022/09/19 00:01:19;;;;;;;2.50;1.25;;;11.90;81.30;;;;;;5070631;28;20052;-70
2022/09/19 00:03:51;;;;;;;1.92;1.05;;;11.90;81.40;;;;;;5071269;28;20020;-70
2022/09/19 00:06:17;;;;;;;4.88;1.13;;;11.90;81.40;;;;;;5070355;28;20036;-70
2022/09/19 00:08:45;;;;;;;1.95;0.85;;;11.90;81.50;;;;;;5072975;28;20020;-70
2022/09/19 00:11:13;;;;;;;2.30;1.23;;;11.90;81.40;;;;;;5078417;28;20031;-70
2022/09/19 00:13:45;;;;;;;1.92;0.98;;;11.90;81.40;;;;;;5087678;28;20024;-70
2022/09/19 00:16:32;;;;;;;4.05;1.50;;;12.00;81.30;;;;;;5081628;28;20081;-70
2022/09/19 00:19:00;;;;;;;2.53;1.02;;;12.00;81.20;;;;;;5086104;28;20029;-70
2022/09/19 00:21:30;;;;;;;4.85;1.48;;;11.90;81.20;;;;;;5079589;28;20051;-70
2022/09/19 00:26:40;;;;;;;1.63;0.77;;;11.90;81.20;;;;;;5079520;28;20575;-70
2022/09/19 00:29:08;;;;;;;3.47;0.90;;;11.90;81.20;;;;;;5079924;28;20162;-70
2022/09/19 00:31:35;;;;;;;2.55;0.75;;;12.00;81.30;;;;;;5080968;28;20452;-70
2022/09/19 00:34:06;;;;;;;1.15;0.60;;;12.00;81.30;;;;;;5078415;28;20123;-70
2022/09/19 00:36:33;;;;;;;2.78;0.98;;;11.90;81.20;;;;;;5079028;28;20321;-70
2022/09/19 00:38:59;;;;;;;2.28;1.05;;;12.00;81.30;;;;;;5080509;28;20024;-70
2022/09/19 00:41:26;;;;;;;8.95;1.92;;;11.90;81.30;;;;;;5079821;28;20063;-69
2022/09/19 00:43:53;;;;;;;18.50;2.08;;;12.00;81.40;;;;;;5082159;28;20028;-69
2022/09/19 00:46:21;;;;;;;1.17;0.77;;;11.90;81.40;;;;;;5080964;28;20044;-69
2022/09/19 00:48:53;;;;;;;4.93;1.17;;;11.90;81.40;;;;;;5085820;28;20023;-69
2022/09/19 00:51:55;;;;;;;1.40;0.85;;;12.00;81.40;;;;;;5083421;28;20019;-69
2022/09/19 00:54:30;;;;;;;1.23;0.70;;;12.00;81.30;;;;;;5092259;28;20043;-69
2022/09/19 00:56:57;;;;;;;1.48;0.65;;;11.90;81.40;;;;;;5069462;28;20044;-71
2022/09/19 00:59:26;;;;;;;1.02;0.80;;;11.90;81.40;;;;;;5092104;28;20032;-71
2022/09/19 01:01:54;;;;;;;4.13;0.70;;;11.90;81.40;;;;;;5073973;28;20024;-71
2022/09/19 01:04:23;;;;;;;0.98;0.63;;;11.90;81.50;;;;;;5101271;28;20115;-71
2022/09/19 01:06:58;;;;;;;3.55;1.20;;;12.00;81.60;;;;;;5068758;28;20111;-69
2022/09/19 01:09:41;;;;;;;2.30;0.98;;;12.00;81.50;;;;;;5085248;28;20376;-71
2022/09/19 01:12:16;;;;;;;1.20;0.80;;;12.00;81.50;;;;;;5076987;28;20024;-71
2022/09/19 01:14:41;;;;;;;3.20;0.88;;;12.00;81.60;;;;;;5090613;28;20058;-69
2022/09/19 01:17:13;;;;;;;3.58;0.93;;;12.00;81.50;;;;;;5071938;28;20060;-69
2022/09/19 01:20:06;;;;;;;4.57;1.42;;;12.00;81.50;;;;;;5088791;28;20031;-72
2022/09/19 01:23:03;;;;;;;1.33;0.85;;;12.00;81.40;;;;;;5078570;28;20047;-69
2022/09/19 01:25:56;;;;;;;1.95;1.17;;;11.90;81.40;;;;;;5081618;28;20055;-69
2022/09/19 01:28:32;;;;;;;1.70;0.63;;;11.90;81.50;;;;;;5088396;28;20497;-69
2022/09/19 01:31:18;;;;;;;1.23;0.77;;;11.90;81.60;;;;;;5083026;28;20024;-68
2022/09/19 01:34:12;;;;;;;4.13;1.35;;;11.90;81.60;;;;;;5089967;28;20031;-69
2022/09/19 01:36:46;;;;;;;4.07;0.80;;;11.90;81.50;;;;;;5078611;28;20020;-69
2022/09/19 01:39:16;;;;;;;2.63;0.85;;;11.90;81.60;;;;;;5082422;28;20113;-69
2022/09/19 01:41:53;;;;;;;1.70;0.85;;;11.90;81.60;;;;;;5078471;28;20103;-71
2022/09/19 01:44:22;;;;;;;2.05;0.93;;;11.90;81.60;;;;;;5081573;28;20483;-72
2022/09/19 01:47:24;;;;;;;3.15;0.73;;;11.90;81.80;;;;;;5087908;28;20521;-71
2022/09/19 01:50:20;;;;;;;0.82;0.80;;;11.90;81.60;;;;;;5083831;28;20490;-71
2022/09/19 01:53:21;;;;;;;6.05;1.52;;;11.90;81.60;;;;;;5085185;28;20024;-71
2022/09/19 01:56:09;;;;;;;1.85;0.85;;;11.90;81.60;;;;;;5085054;28;20024;-70
2022/09/19 01:59:12;;;;;;;1.63;0.95;;;11.90;81.60;;;;;;5095842;28;20039;-71
2022/09/19 02:01:55;;;;;;;2.42;0.90;;;11.90;81.60;;;;;;5090091;28;20116;-71
2022/09/19 02:04:23;;;;;;;;;;;11.90;81.60;;;;;;5084558;28;20068;-69
2022/09/19 02:06:58;;;;;;;4.32;0.85;;;11.80;81.70;;;;;;5078356;28;19916;-72
2022/09/19 02:09:30;;;;;;;2.58;0.75;;;11.80;81.70;;;;;;5088716;28;20032;-70
2022/09/19 02:11:59;;;;;;;2.90;1.05;;;11.90;81.80;;;;;;5079513;28;20031;-70
2022/09/19 02:14:30;;;;;;;1.17;0.60;;;11.90;81.70;;;;;;5089910;28;20020;-70
2022/09/19 02:17:03;;;;;;;2.80;0.82;;;11.90;81.70;;;;;;5077248;28;20028;-72
2022/09/19 02:19:35;;;;;;;2.50;0.63;;;11.90;81.70;;;;;;5075302;28;20049;-70
2022/09/19 02:22:08;;;;;;;6.85;1.10;;;11.80;81.70;;;;;;5077451;28;20059;-70
2022/09/19 02:24:38;;;;;;;1.88;0.90;;;11.90;81.80;;;;;;5077186;28;20024;-70
2022/09/19 02:27:09;;;;;;;0.80;0.57;;;11.90;81.80;;;;;;5083672;28;20092;-70
2022/09/19 02:29:40;;;;;;;0.68;0.60;;;11.90;81.80;;;;;;5077785;28;20032;-69
2022/09/19 02:32:07;;;;;;;1.40;0.63;;;11.90;81.80;;;;;;5081151;28;20487;-70
2022/09/19 02:34:34;;;;;;;5.03;0.65;;;11.90;81.80;;;;;;5076986;28;20025;-70
2022/09/19 02:37:18;;;;;;;1.77;0.98;;;11.80;81.80;;;;;;5079134;28;20064;-70
2022/09/19 02:39:50;;;;;;;1.55;0.93;;;11.80;81.80;;;;;;5082094;28;20020;-70
2022/09/19 02:42:30;;;;;;;1.27;0.70;;;11.80;81.80;;;;;;5081002;28;20024;-70
2022/09/19 02:45:06;;;;;;;3.17;0.82;;;11.80;81.90;;;;;;5085027;28;20042;-70
2022/09/19 02:48:00;;;;;;;1.52;0.85;;;11.80;81.80;;;;;;5087274;28;20039;-70
2022/09/19 02:50:29;;;;;;;2.70;0.68;;;11.80;81.80;;;;;;5088394;28;20032;-69
2022/09/19 02:52:58;;;;;;;5.82;1.42;;;11.80;81.90;;;;;;5080652;28;20021;-71
2022/09/19 02:55:31;;;;;;;1.10;0.70;;;11.80;81.90;;;;;;5087219;28;20036;-70
2022/09/19 02:58:02;;;;;;;2.08;0.90;;;11.80;82.00;;;;;;5078264;28;20029;-69
2022/09/19 03:00:29;;;;;;;2.03;0.80;;;11.80;82.00;;;;;;5072169;28;20479;-70
2022/09/19 03:06:11;;;;;;;2.50;1.42;;;11.80;82.00;;;;;;5078679;28;20153;-68
2022/09/19 03:08:38;;;;;;;1.33;0.80;;;11.80;82.10;;;;;;5073779;28;20383;-69
2022/09/19 03:11:09;;;;;;;2.65;0.70;;;11.80;82.00;;;;;;5075743;28;20032;-69
2022/09/19 03:13:38;;;;;;;2.25;0.80;;;11.80;82.00;;;;;;5088197;28;20272;-70
2022/09/19 03:16:15;;;;;;;5.85;1.25;;;11.80;82.00;;;;;;5075578;28;20025;-69
2022/09/19 03:18:47;;;;;;;4.18;1.05;;;11.80;81.90;;;;;;5076355;28;20111;-70
2022/09/19 03:21:18;;;;;;;11.15;0.85;;;11.80;82.00;;;;;;5075877;28;20024;-71
2022/09/19 03:23:50;;;;;;;1.58;1.23;;;11.80;82.00;;;;;;5114669;27;20032;-71
2022/09/19 03:26:30;;;;;;;1.17;0.63;;;11.80;81.90;;;;;;5074540;28;20432;-72
2022/09/19 03:28:56;;;;;;;1.50;0.52;;;11.80;82.00;;;;;;5096087;27;20480;-70
2022/09/19 03:31:23;;;;;;;1.92;1.05;;;11.80;82.00;;;;;;5079912;28;20429;-69
2022/09/19 03:33:51;;;;;;;0.93;0.60;;;11.80;82.10;;;;;;5081454;28;20107;-70
2022/09/19 03:36:18;;;;;;;0.57;0.57;;;11.80;82.10;;;;;;5079305;28;20036;-69
2022/09/19 03:38:44;;;;;;;1.08;0.73;;;11.80;82.20;;;;;;5079762;28;20039;-69
2022/09/19 03:41:21;;;;;;;5.15;1.23;;;11.80;82.30;;;;;;5079473;28;20098;-69
2022/09/19 03:43:47;;;;;;;3.80;1.10;;;11.80;82.40;;;;;;5086747;28;20032;-72
2022/09/19 03:46:16;;;;;;;1.85;0.90;;;11.80;82.40;;;;;;5081135;28;20415;-71
2022/09/19 03:48:44;;;;;;;1.60;0.70;;;11.80;82.50;;;;;;5092684;28;20032;-70
2022/09/19 03:51:11;;;;;;;7.65;0.73;;;11.80;82.50;;;;;;5083167;28;20034;-70
2022/09/19 03:53:37;;;;;;;1.85;0.52;;;11.80;82.50;;;;;;5087915;28;20024;-71
2022/09/19 03:56:04;;;;;;;0.82;0.60;;;11.80;82.50;;;;;;5089708;28;20023;-72
2022/09/19 03:58:30;;;;;;;6.72;1.15;;;11.80;82.40;;;;;;5089772;28;20024;-69
2022/09/19 04:00:57;;;;;;;4.50;1.50;;;11.80;82.40;;;;;;5077883;28;20044;-70
2022/09/19 04:03:23;;;;;;;2.58;0.60;;;11.80;82.50;;;;;;5073862;28;20074;-70
2022/09/19 04:05:51;;;;;;;0.80;0.68;;;11.90;82.60;;;;;;5071303;28;20040;-69
2022/09/19 04:08:16;;;;;;;0.52;0.52;;;11.90;82.60;;;;;;5077083;28;20502;-69
2022/09/19 04:10:42;;;;;;;0.77;0.68;;;11.90;82.50;;;;;;5076181;28;20399;-70
2022/09/19 04:13:13;;;;;;;9.10;1.15;;;11.90;82.50;;;;;;5074609;28;20111;-72
2022/09/19 04:15:40;;;;;;;2.97;0.70;;;12.00;82.40;;;;;;5083230;28;20035;-72
2022/09/19 04:18:06;;;;;;;1.95;0.75;;;12.00;82.40;;;;;;5083147;28;20032;-73
2022/09/19 04:20:32;;;;;;;2.95;0.75;;;12.00;82.40;;;;;;5082397;28;20028;-72
2022/09/19 04:23:00;;;;;;;2.60;0.90;;;12.00;82.40;;;;;;5081046;28;20036;-71
2022/09/19 04:25:33;;;;;;;1.55;0.93;;;11.90;82.40;;;;;;5081377;28;20115;-72
2022/09/19 04:28:03;;;;;;;1.73;0.90;;;12.00;82.50;;;;;;5093628;28;20043;-70
2022/09/19 04:30:34;;;;;;;12.40;1.63;;;12.00;83.10;;;;;;5070790;28;20475;-70
2022/09/19 04:33:02;;;;;;;1.55;0.70;;;12.00;82.60;;;;;;5088847;28;20043;-70
2022/09/19 04:35:35;;;;;;;4.43;1.88;;;12.00;82.60;;;;;;5084562;28;20567;-70
2022/09/19 04:38:01;;;;;;;;;;;12.00;82.60;;;;;;5084219;28;20376;-71
2022/09/19 04:40:28;;;;;;;3.22;1.00;;;12.00;82.80;;;;;;5085502;28;19908;-73
2022/09/19 04:42:54;;;;;;;2.28;1.15;;;12.00;83.00;;;;;;5079349;28;20442;-71
2022/09/19 04:45:20;;;;;;;1.83;1.15;;;12.00;83.50;;;;;;5081908;28;20056;-70
2022/09/19 04:47:50;;;;;;;0.65;0.60;;;12.10;83.00;;;;;;5082896;28;20034;-70
2022/09/19 04:50:17;;;;;;;1.80;0.70;;;12.10;83.00;;;;;;5085387;28;20030;-71
2022/09/19 04:52:43;;;;;;;2.63;0.93;;;12.10;83.10;;;;;;5093524;28;20025;-71
2022/09/19 04:55:09;;;;;;;1.38;0.80;;;12.10;83.10;;;;;;5086570;28;20027;-70
2022/09/19 04:57:35;;;;;;;2.05;0.98;;;12.10;83.00;;;;;;5068402;28;20138;-70
2022/09/19 05:00:02;;;;;;;1.25;0.60;;;12.10;82.90;;;;;;5084047;28;20103;-70
2022/09/19 05:02:30;;;;;;;1.17;0.65;;;12.10;82.90;;;;;;5073020;28;20501;-70
2022/09/19 05:04:55;;;;;;;3.03;0.98;;;12.10;83.00;;;;;;5086621;28;20024;-70
2022/09/19 05:07:23;;;;;;;2.70;0.57;;;12.10;83.10;;;;;;5074416;28;20047;-70
2022/09/19 05:09:50;;;;;;;0.77;0.40;;;12.10;83.20;;;;;;5074339;28;20021;-70
2022/09/19 05:12:16;;;;;;;0.40;0.40;;;12.10;83.20;;;;;;5087276;28;20475;-70
2022/09/19 05:14:41;;;;;;;9.68;1.13;;;12.10;83.20;;;;;;5082018;28;20085;-69
2022/09/19 05:17:07;;;;;;;1.10;0.50;;;12.10;83.30;;;;;;5082299;28;20399;-70
2022/09/19 05:19:32;;;;;;;3.53;0.77;;;12.10;83.20;;;;;;5070773;28;20442;-70
2022/09/19 05:21:58;;;;;;;0.57;0.50;;;12.10;83.20;;;;;;5086646;28;20624;-71
2022/09/19 05:24:24;;;;;;;0.73;0.63;;;12.10;83.30;;;;;;5073540;28;20032;-71
2022/09/19 05:26:49;;;;;;;2.38;1.08;;;12.10;83.40;;;;;;5073903;28;20060;-71
2022/09/19 05:29:15;;;;;;;2.20;1.17;;;12.10;83.40;;;;;;5073778;28;20029;-70
2022/09/19 05:31:45;;;;;;;3.25;1.15;;;12.20;83.60;;;;;;5079946;28;20032;-71
2022/09/19 05:34:11;;;;;;;0.57;0.50;;;12.20;83.60;;;;;;5085126;28;20425;-69
2022/09/19 05:36:37;;;;;;;1.45;0.95;;;12.20;83.50;;;;;;5084863;28;20387;-70
2022/09/19 05:39:03;;;;;;;1.33;0.70;;;12.20;83.40;;;;;;5083053;28;20150;-69
2022/09/19 05:41:29;;;;;;;10.90;0.82;;;12.30;83.40;;;;;;5084994;28;20103;-71
2022/09/19 05:43:55;;;;;;;0.88;0.50;;;12.30;83.30;;;;;;5082765;28;20039;-70
2022/09/19 05:46:21;;;;;;;2.33;0.65;;;12.30;83.30;;;;;;5081062;28;20508;-68
2022/09/19 05:48:48;;;;;;;0.75;0.65;;;12.30;83.30;;;;;;5073319;28;20024;-69
2022/09/19 05:51:13;;;;;;;2.25;0.70;;;12.30;83.40;;;;;;5075452;28;20026;-69
2022/09/19 05:53:57;;;;;;;3.75;0.90;;;12.30;83.40;;;;;;5085995;28;20039;-69
2022/09/19 05:56:23;;;;;;;1.02;0.80;;;12.40;83.40;;;;;;5079866;28;20547;-69
2022/09/19 05:58:53;;;;;;;1.67;0.88;;;12.40;83.30;;;;;;5068436;28;20119;-69
2022/09/19 06:01:19;;;;;;;0.55;0.55;;;12.50;83.30;;;;;;5082920;28;20021;-70
2022/09/19 06:03:45;;;;;;;16.55;1.10;;;12.40;83.20;;;;;;5074054;28;20143;-70
2022/09/19 06:06:18;;;;;;;0.40;0.40;;;12.50;83.30;;;;;;5079423;28;20036;-69
2022/09/19 06:08:45;;;;;;;7.60;1.23;;;12.50;83.20;;;;;;5082588;28;20025;-69
2022/09/19 06:11:11;;;;;;;0.77;0.60;;;12.60;83.30;;;;;;5079438;28;20036;-69
2022/09/19 06:16:22;;;;;;;4.85;0.82;;;12.60;83.10;;;;;;5090361;28;20129;-70
2022/09/19 06:18:48;;;;;;;8.35;0.85;;;12.70;83.30;;;;;;5075058;28;20069;-70
2022/09/19 06:21:14;;;;;;;2.15;0.52;;;12.70;83.20;;;;;;5084962;28;20039;-73
2022/09/19 06:23:41;;;;;;;1.08;0.88;;;12.80;83.30;;;;;;5079134;28;20023;-73
2022/09/19 06:26:07;;;;;;;1.42;0.75;;;12.80;83.30;;;;;;5088881;28;20032;-71
2022/09/19 06:28:33;;;;;;;1.02;0.50;;;12.80;83.30;;;;;;5085145;28;20089;-71
2022/09/19 06:31:03;;;;;;;2.28;0.93;;;12.80;83.40;;;;;;5093951;28;20095;-73
2022/09/19 06:33:30;;;;;;;6.07;1.08;;;12.90;83.40;;;;;;5082826;28;20095;-70
2022/09/19 06:35:58;;;;;;;1.88;0.85;;;12.90;83.60;;;;;;5087175;28;20477;-71
2022/09/19 06:38:24;;;;;;;1.23;0.85;;;12.90;83.50;;;;;;5086433;28;20028;-70
2022/09/19 06:40:50;;;;;;;2.55;0.95;;;13.00;83.50;;;;;;5088672;28;20032;-71
2022/09/19 06:43:16;;;;;;;4.40;0.80;;;13.00;83.30;;;;;;5083696;28;20473;-70
2022/09/19 06:45:41;;;;;;;1.33;1.10;;;13.10;83.30;;;;;;5090923;28;20052;-69
2022/09/19 06:48:09;;;;;;;0.80;0.80;;;13.10;83.20;;;;;;5093195;28;20028;-72
2022/09/19 06:50:35;;;;;;;4.60;1.02;;;13.20;83.40;;;;;;5093362;28;20577;-80
2022/09/19 06:53:02;;;;;;;1.27;0.90;;;13.20;83.30;;;;;;5084639;28;20048;-73
2022/09/19 06:55:29;;;;;;;1.58;1.05;;;13.20;83.30;;;;;;5093225;28;20028;-73
2022/09/19 06:58:03;;;;;;;0.68;0.30;;;13.30;83.20;;;;;;5099659;28;20024;-72
2022/09/19 07:00:31;;;;;;;2.58;1.33;;;13.40;83.10;;;;;;5088744;28;20128;-74
2022/09/19 07:03:12;;;;;;;2.67;1.10;;;13.40;83.00;;;;;;5084098;28;20079;-70
2022/09/19 07:05:42;;;;;;;4.65;0.95;;;13.50;82.90;;;;;;5087551;28;20028;-71
2022/09/19 07:08:09;;;;;;;1.48;0.50;;;13.60;82.90;;;;;;5085711;28;20052;-70
2022/09/19 07:10:36;;;;;;;2.05;0.77;;;13.70;82.80;;;;;;5090477;28;20081;-71
2022/09/19 07:13:04;;;;;;;0.70;0.70;;;13.90;82.60;;;;;;5089002;28;20032;-70
2022/09/19 07:15:33;;;;;;;4.28;0.90;;;14.00;82.40;;;;;;5087881;28;20040;-71
2022/09/19 07:17:59;;;;;;;3.13;0.55;;;14.00;82.10;;;;;;5091357;28;20029;-71
2022/09/19 07:20:28;;;;;;;2.45;1.23;;;14.10;82.20;;;;;;5068113;28;20024;-69
2022/09/19 07:23:00;;;;;;;1.80;1.05;;;14.00;82.20;;;;;;5083098;28;20024;-72
2022/09/19 07:25:26;;;;;;;3.28;1.08;;;14.00;82.30;;;;;;5089615;28;20028;-71
2022/09/19 07:27:57;;;;;;;2.08;0.80;;;13.90;82.40;;;;;;5091001;28;20020;-71
2022/09/19 07:30:23;;;;;;;0.75;0.65;;;13.80;82.50;;;;;;5091113;28;20068;-71
2022/09/19 07:32:48;;;;;;;3.80;1.13;;;13.80;82.60;;;;;;5082668;28;20472;-69
2022/09/19 07:35:14;;;;;;;1.10;0.93;;;13.80;82.70;;;;;;5092341;28;20032;-70
2022/09/19 07:37:40;;;;;;;0.98;0.80;;;13.80;82.70;;;;;;5085678;28;20527;-69
2022/09/19 07:40:06;;;;;;;2.78;0.95;;;13.90;82.60;;;;;;5103426;28;20028;-69
2022/09/19 07:42:31;;;;;;;1.33;0.50;;;14.10;82.50;;;;;;5099156;28;20119;-69
2022/09/19 07:44:57;;;;;;;2.53;0.70;;;14.20;82.30;;;;;;5085699;28;20483;-68
2022/09/19 07:47:29;;;;;;;1.23;0.93;;;14.20;82.20;;;;;;5086287;28;20382;-69
2022/09/19 07:49:55;;;;;;;0.93;0.63;;;14.20;82.10;;;;;;5083497;28;20025;-68
2022/09/19 07:52:22;;;;;;;1.33;0.70;;;14.40;82.70;;;;;;5079347;28;20451;-70
2022/09/19 07:54:49;;;;;;;2.40;0.95;;;14.50;82.00;;;;;;5097678;28;20037;-69
2022/09/19 07:57:15;;;;;;;1.55;0.70;;;14.50;81.80;;;;;;5092304;28;20414;-69
2022/09/19 07:59:40;;;;;;;0.73;0.52;;;14.60;81.70;;;;;;5080024;28;20039;-70
2022/09/19 08:02:09;;;;;;;4.05;1.10;;;14.60;81.50;;;;;;5075439;28;20036;-70
2022/09/19 08:04:36;;;;;;;2.38;0.73;;;14.60;81.50;;;;;;5077403;28;20432;-69
2022/09/19 08:07:03;;;;;;;2.63;0.90;;;14.60;81.50;;;;;;5076102;28;20033;-68
2022/09/19 08:09:29;;;;;;;3.58;1.40;;;14.60;81.60;;;;;;5087405;28;20043;-69
2022/09/19 08:11:55;;;;;;;4.35;0.60;;;14.70;81.50;;;;;;5078737;28;20043;-70
2022/09/19 08:14:21;;;;;;;4.38;1.02;;;14.80;81.30;;;;;;5077847;28;20067;-70
2022/09/19 08:16:46;;;;;;;3.05;1.10;;;14.90;81.20;;;;;;5086138;28;20391;-70
2022/09/19 08:19:12;;;;;;;7.65;1.27;;;15.00;80.90;;;;;;5059124;28;20386;-70
2022/09/19 08:21:38;;;;;;;0.63;0.50;;;15.20;80.80;;;;;;5084264;28;20021;-70
2022/09/19 08:24:03;;;;;;;2.03;1.08;;;15.20;80.60;;;;;;5080318;28;20090;-69
2022/09/19 08:26:30;;;;;;;1.90;1.10;;;15.40;80.40;;;;;;5086852;28;20036;-69
2022/09/19 08:28:56;;;;;;;8.63;1.63;;;15.50;80.30;;;;;;5075618;28;20107;-70
2022/09/19 08:31:22;;;;;;;1.95;0.82;;;15.60;79.90;;;;;;5074546;28;20688;-69
2022/09/19 08:33:48;;;;;;;1.38;0.55;;;15.70;79.90;;;;;;5069678;28;20016;-68
2022/09/19 08:36:15;;;;;;;6.45;1.35;;;15.80;79.70;;;;;;5091496;28;20436;-68
2022/09/19 08:38:41;;;;;;;3.38;1.30;;;15.90;79.50;;;;;;5084473;28;20028;-69
2022/09/19 08:41:34;;;;;;;3.63;0.80;;;16.00;79.10;;;;;;5078867;28;20181;-68
2022/09/19 08:44:25;;;;;;;2.42;0.65;;;16.10;78.70;;;;;;5078123;28;20028;-69
2022/09/19 08:47:26;;;;;;;4.68;0.80;;;16.10;78.40;;;;;;5082833;28;20666;-70
2022/09/19 08:49:54;;;;;;;0.77;0.50;;;16.20;78.40;;;;;;5030071;28;20410;-70
2022/09/19 08:52:44;;;;;;;2.75;0.80;;;16.30;77.60;;;;;;5075255;28;20024;-71
2022/09/19 08:55:26;;;;;;;1.70;0.80;;;16.40;77.20;;;;;;5092175;28;20070;-69
2022/09/19 08:58:01;;;;;;;2.28;1.40;;;16.40;77.10;;;;;;5090438;28;20391;-68
2022/09/19 09:00:38;;;;;;;1.23;1.10;;;16.60;76.70;;;;;;5081066;28;20051;-68
2022/09/19 09:03:06;;;;;;;1.33;0.85;;;16.80;76.30;;;;;;5083029;28;20030;-71
2022/09/19 09:05:55;;;;;;;1.42;0.68;;;16.90;75.40;;;;;;5076233;28;20056;-70
2022/09/19 09:08:39;;;;;;;2.40;1.25;;;17.10;75.40;;;;;;5074595;28;20067;-71
2022/09/19 09:11:33;;;;;;;2.60;1.10;;;17.20;75.10;;;;;;5077442;28;20031;-71
2022/09/19 09:14:39;;;;;;;1.45;0.90;;;17.40;74.70;;;;;;5079471;28;20028;-68
2022/09/19 09:17:34;;;;;;;1.42;0.70;;;17.50;74.50;;;;;;5073465;28;20040;-71
2022/09/19 09:20:11;;;;;;;3.25;0.95;;;17.70;74.30;;;;;;5093891;28;20505;-68
2022/09/19 09:22:43;;;;;;;1.27;0.65;;;17.80;73.40;;;;;;5069035;28;20124;-69
2022/09/19 09:25:24;;;;;;;1.40;0.88;;;17.80;72.70;;;;;;5072959;28;20547;-71
2022/09/19 09:28:13;;;;;;;1.13;0.70;;;17.50;73.30;;;;;;5080283;28;20111;-70
2022/09/19 09:30:44;;;;;;;0.40;0.40;;;16.80;74.70;;;;;;5075482;28;20016;-70
2022/09/19 09:33:27;;;;;;;0.20;0.20;;;16.30;75.80;;;;;;5080334;28;20070;-69
2022/09/19 09:36:06;;;;;;;0.40;0.40;;;16.00;76.50;;;;;;5074843;28;20051;-69
2022/09/19 09:39:01;;;;;;;2.15;0.60;;;15.80;77.30;;;;;;5068367;28;20384;-70
2022/09/19 09:41:45;;;;;;;0.88;0.50;;;15.60;77.40;;;;;;5079946;28;20390;-70
2022/09/19 09:44:13;;;;;;;0.28;0.28;;;15.50;78.50;;;;;;5074594;28;20024;-69
2022/09/19 09:47:06;;;;;;;0.68;0.30;;;15.40;78.20;;;;;;5074917;28;20044;-69
2022/09/19 09:49:33;;;;;;;1.08;0.50;;;15.60;78.40;;;;;;5089715;28;20036;-68
2022/09/19 09:52:20;;;;;;;0.85;0.60;;;15.80;78.20;;;;;;5085776;28;20105;-70
2022/09/19 09:58:24;;;;;;;0.55;0.40;;;16.10;77.60;;;;;;5091412;28;20090;-69
2022/09/19 10:04:45;;;;;;;3.33;0.40;;;16.30;77.90;;;;;;5111285;27;20981;-70
2022/09/19 10:09:33;;;;;;;0.50;0.50;;;16.50;77.40;;;;;;5131043;27;20108;-69
2022/09/19 10:12:09;;;;;;;0.30;0.30;;;16.60;77.50;;;;;;5123831;27;20123;-69
2022/09/19 10:14:38;;;;;;;0.30;0.30;;;16.70;77.30;;;;;;5120002;27;20116;-69
2022/09/19 10:17:05;;;;;;;0.90;0.63;;;16.70;77.40;;;;;;5124590;27;20023;-69
2022/09/19 10:19:41;;;;;;;0.35;0.35;;;16.80;77.00;;;;;;5114185;27;20030;-70
2022/09/19 10:22:14;;;;;;;1.55;0.70;;;16.90;76.90;;;;;;5114583;27;20030;-69
2022/09/19 10:24:59;;;;;;;0.95;0.40;;;16.90;76.40;;;;;;5106508;27;20035;-70
2022/09/19 10:27:26;;;;;;;0.93;0.60;;;17.00;76.70;;;;;;5117032;28;20044;-69
2022/09/19 10:29:57;;;;;;;1.42;0.30;;;17.20;76.40;;;;;;5124536;28;20043;-69
2022/09/19 10:32:26;;;;;;;6.43;1.13;;;17.50;76.10;;;;;;5122730;27;20019;-68
2022/09/19 10:34:52;;;;;;;2.30;0.63;;;17.80;74.30;;;;;;5122144;28;20359;-68
2022/09/19 10:37:28;;;;;;;0.70;0.60;;;18.10;74.00;;;;;;5122008;27;20122;-69
2022/09/19 10:40:03;;;;;;;1.10;0.85;;;18.20;73.40;;;;;;5111008;27;20042;-69
2022/09/19 10:42:40;;;;;;;0.50;0.40;;;18.10;71.30;;;;;;5117112;28;20024;-70
2022/09/19 10:45:25;;;;;;;2.50;0.30;;;17.80;70.40;;;;;;5105973;28;20031;-69
2022/09/19 10:48:00;;;;;;;0.57;0.57;;;17.40;70.60;;;;;;5125588;27;20150;-69
2022/09/19 10:50:27;;;;;;;0.38;0.30;;;17.10;71.60;;;;;;5126011;28;20114;-69
2022/09/19 10:53:01;;;;;;;2.35;0.30;;;16.90;72.00;;;;;;5126449;28;20522;-69
2022/09/19 10:55:26;;;;;;;0.40;0.40;;;16.80;72.30;;;;;;5127005;27;20464;-70
2022/09/19 10:58:12;;;;;;;1.15;0.30;;;16.80;73.00;;;;;;5124898;27;20444;-69
2022/09/19 11:00:55;;;;;;;0.30;0.30;;;16.80;73.30;;;;;;5122546;27;20027;-69
2022/09/19 11:03:25;;;;;;;1.05;0.70;;;16.80;73.50;;;;;;5125236;28;20509;-71
2022/09/19 11:06:10;;;;;;;1.65;0.35;;;16.80;73.50;;;;;;5124417;28;20042;-70
2022/09/19 11:08:55;;;;;;;2.33;0.55;;;16.90;73.60;;;;;;5113954;28;20055;-70
2022/09/19 11:11:37;;;;;;;0.45;0.45;;;16.90;73.60;;;;;;5120381;28;20101;-70
2022/09/19 11:14:22;;;;;;;4.18;1.23;;;17.10;73.70;;;;;;5121265;27;20470;-71
2022/09/19 11:17:18;;;;;;;2.55;0.52;;;17.40;73.10;;;;;;5117861;28;20390;-69
2022/09/19 11:20:08;;;;;;;0.45;0.40;;;17.80;72.00;;;;;;5099549;28;20579;-70
2022/09/19 11:23:07;;;;;;;1.33;0.80;;;18.60;70.70;;;;;;5112204;28;20030;-69
2022/09/19 11:25:51;;;;;;;0.30;0.30;;;19.00;66.80;;;;;;5103354;28;20062;-68
2022/09/19 11:28:44;;;;;;;0.30;0.30;;;19.30;66.20;;;;;;5097430;28;20028;-68
2022/09/19 11:31:46;;;;;;;0.82;0.73;;;19.60;64.60;;;;;;5107898;28;20416;-68
2022/09/19 11:34:36;;;;;;;4.57;0.43;;;19.70;60.60;;;;;;5022398;28;20029;-67
2022/09/19 11:37:25;;;;;;;0.50;0.50;;;19.50;60.30;;;;;;5105052;28;20110;-69
2022/09/19 11:40:06;;;;;;;0.80;0.80;;;19.40;60.90;;;;;;5105705;27;20494;-68
2022/09/19 11:42:54;;;;;;;0.45;0.45;;;19.30;62.10;;;;;;5094470;28;20180;-69
2022/09/19 11:45:22;;;;;;;1.38;0.70;;;19.40;62.60;;;;;;5101492;28;20035;-69
2022/09/19 11:48:07;;;;;;;0.45;0.45;;;19.60;62.40;;;;;;5104212;28;20046;-69
2022/09/19 11:51:17;;;;;;;1.38;0.60;;;19.80;61.80;;;;;;5110482;28;20076;-67
2022/09/19 11:54:22;;;;;;;2.58;0.70;;;19.80;58.00;;;;;;5109351;28;20027;-68
2022/09/19 11:56:57;;;;;;;2.28;0.40;;;19.80;59.20;;;;;;5101332;28;20012;-67
2022/09/19 11:59:24;;;;;;;0.40;0.40;;;20.00;59.50;;;;;;5103912;27;20036;-68
2022/09/19 12:02:06;;;;;;;1.27;0.30;;;20.10;58.20;;;;;;5106001;27;20024;-68
2022/09/19 12:04:51;;;;;;;0.32;0.32;;;20.30;57.20;;;;;;5106009;28;20031;-68
2022/09/19 12:07:25;;;;;;;3.30;0.40;;;20.30;55.80;;;;;;5084203;28;20051;-70
2022/09/19 12:10:10;;;;;;;2.70;0.95;;;20.20;55.40;;;;;;5109657;27;20102;-69
2022/09/19 12:12:40;;;;;;;0.68;0.30;;;20.30;55.60;;;;;;5110350;28;20023;-68
2022/09/19 12:15:22;;;;;;;3.58;0.40;;;20.40;54.10;;;;;;5107230;27;20035;-69
2022/09/19 12:18:10;;;;;;;1.00;0.30;;;20.40;55.10;;;;;;5108603;28;20028;-68
2022/09/19 12:20:38;;;;;;;0.30;0.30;;;20.50;55.40;;;;;;5108057;28;20031;-68
2022/09/19 12:26:16;;;;;;;1.65;0.35;;;20.90;53.40;;;;;;5072808;28;20031;-68
2022/09/19 12:28:54;;;;;;;0.20;0.20;;;20.90;53.50;;;;;;5108632;27;20027;-69
2022/09/19 12:31:28;;;;;;;0.77;0.57;;;21.00;52.50;;;;;;5105520;28;20534;-69
2022/09/19 12:34:13;;;;;;;0.68;0.50;;;20.70;52.30;;;;;;5109431;28;20043;-68
2022/09/19 12:36:55;;;;;;;0.98;0.30;;;20.40;53.70;;;;;;5102136;28;20073;-68
2022/09/19 12:39:55;;;;;;;0.30;0.30;;;20.40;55.00;;;;;;5104671;28;20030;-69
2022/09/19 12:42:29;;;;;;;1.80;0.85;;;20.60;54.60;;;;;;5091649;28;21094;-69
2022/09/19 12:45:09;;;;;;;1.50;0.73;;;20.60;53.50;;;;;;5099394;28;20394;-68
2022/09/19 12:47:35;;;;;;;0.47;0.20;;;20.70;54.00;;;;;;5086873;28;20482;-67
2022/09/19 12:50:15;;;;;;;0.30;0.30;;;20.80;52.90;;;;;;5103059;28;20043;-67
2022/09/19 12:52:47;;;;;;;0.47;0.30;;;20.80;51.30;;;;;;5091267;28;20017;-67
2022/09/19 12:55:15;;;;;;;1.20;0.77;;;20.80;50.70;;;;;;5100536;27;20031;-67
2022/09/19 12:58:01;;;;;;;0.95;0.38;;;20.80;49.90;;;;;;5090190;28;20557;-67
2022/09/19 13:00:27;;;;;;;0.63;0.50;;;20.70;50.10;;;;;;5104755;28;21522;-67
2022/09/19 13:03:07;;;;;;;0.25;0.22;;;20.80;50.20;;;;;;5083155;28;20188;-68
2022/09/19 13:05:45;;;;;;;0.30;0.30;;;21.00;50.30;;;;;;5108472;27;20027;-68
2022/09/19 13:08:20;;;;;;;0.52;0.52;;;21.20;49.70;;;;;;5105137;28;20051;-67
2022/09/19 13:10:54;;;;;;;1.65;0.57;;;21.20;50.50;;;;;;5103749;28;20019;-68
2022/09/19 13:13:22;;;;;;;0.20;0.20;;;21.20;50.80;;;;;;5107035;28;20476;-68
2022/09/19 13:15:58;;;;;;;0.40;0.40;;;20.90;51.90;;;;;;5107748;28;20095;-67
2022/09/19 13:24:40;;;;;;;1.20;0.40;;;20.80;52.20;;;;;;5105810;28;20061;-68
2022/09/19 13:27:06;;;;;;;0.30;0.30;;;21.10;50.40;;;;;;5104760;28;20134;-67
2022/09/19 13:29:33;;;;;;;0.40;0.40;;;21.30;50.60;;;;;;5088188;28;20367;-67
2022/09/19 13:32:09;;;;;;;0.77;0.52;;;21.40;49.70;;;;;;5104697;28;20525;-68
2022/09/19 13:35:00;;;;;;;0.32;0.32;;;21.60;49.90;;;;;;5078265;28;20474;-69
2022/09/19 13:37:25;;;;;;;0.40;0.35;;;21.90;49.20;;;;;;5103002;28;21053;-69
2022/09/19 13:40:21;;;;;;;0.85;0.30;;;21.70;48.80;;;;;;5104813;28;20031;-69
2022/09/19 13:43:13;;;;;;;0.40;0.30;;;21.50;49.70;;;;;;5101093;27;20042;-69
2022/09/19 13:45:41;;;;;;;1.60;0.53;;;21.40;49.50;;;;;;5080078;28;20040;-68
2022/09/19 13:48:54;;;;;;;0.30;0.30;;;21.40;49.30;;;;;;5103128;28;20274;-68